createdAt,value
2023-05-10T00:01:18.230Z,8.50
2023-05-10T00:03:45.988Z,8.50
2023-05-10T00:06:13.846Z,8.50
2023-05-10T00:08:41.739Z,8.50
2023-05-10T00:11:09.489Z,8.50
2023-05-10T00:13:37.213Z,8.40
2023-05-10T00:16:05.052Z,8.30
2023-05-10T00:18:32.797Z,8.20
2023-05-10T00:21:00.596Z,8.20
2023-05-10T00:23:28.302Z,8.20
2023-05-10T00:25:57.119Z,8.30
2023-05-10T00:28:24.813Z,8.30
2023-05-10T00:30:52.518Z,8.30
2023-05-10T00:33:20.431Z,8.30
2023-05-10T00:35:48.963Z,8.40
2023-05-10T00:38:16.780Z,8.40
2023-05-10T00:40:45.068Z,8.30
2023-05-10T00:43:20.407Z,8.20
2023-05-10T00:45:49.125Z,8.20
2023-05-10T00:48:16.865Z,8.30
2023-05-10T00:50:45.851Z,8.30
2023-05-10T00:53:13.807Z,8.30
2023-05-10T00:55:42.312Z,8.40
2023-05-10T00:58:10.096Z,8.40
2023-05-10T01:00:39.620Z,8.50
2023-05-10T01:03:07.457Z,8.40
2023-05-10T01:05:35.331Z,8.50
2023-05-10T01:08:03.831Z,8.40
2023-05-10T01:10:32.501Z,8.40
2023-05-10T01:13:01.176Z,8.50
2023-05-10T01:15:29.037Z,8.50
2023-05-10T01:17:57.684Z,8.50
2023-05-10T01:20:26.396Z,8.60
2023-05-10T01:23:22.544Z,8.60
2023-05-10T01:26:18.014Z,8.60
2023-05-10T01:28:48.670Z,8.60
2023-05-10T01:31:31.348Z,8.60
2023-05-10T01:34:09.972Z,8.60
2023-05-10T01:37:06.661Z,8.60
2023-05-10T01:39:49.495Z,8.60
2023-05-10T01:42:24.339Z,8.60
2023-05-10T01:45:01.507Z,8.60
2023-05-10T01:47:29.365Z,8.60
2023-05-10T01:49:59.090Z,8.50
2023-05-10T01:52:45.778Z,8.50
2023-05-10T01:55:17.538Z,8.60
2023-05-10T01:57:47.453Z,8.60
2023-05-10T02:00:17.403Z,8.60
2023-05-10T02:02:50.763Z,8.60
2023-05-10T02:05:20.319Z,8.50
2023-05-10T02:07:49.464Z,8.60
2023-05-10T02:10:19.151Z,8.60
2023-05-10T02:12:50.529Z,8.60
2023-05-10T02:15:25.976Z,8.60
2023-05-10T02:17:56.670Z,8.60
2023-05-10T02:20:25.734Z,8.50
2023-05-10T02:22:55.839Z,8.50
2023-05-10T02:25:24.924Z,8.50
2023-05-10T02:27:56.693Z,8.50
2023-05-10T02:30:25.148Z,8.40
2023-05-10T02:32:53.629Z,8.50
2023-05-10T02:35:23.599Z,8.40
2023-05-10T02:37:52.291Z,8.40
2023-05-10T02:40:22.467Z,8.40
2023-05-10T02:42:53.312Z,8.40
2023-05-10T02:45:24.667Z,8.40
2023-05-10T02:47:53.396Z,8.40
2023-05-10T02:50:23.358Z,8.40
2023-05-10T02:52:54.024Z,8.40
2023-05-10T02:55:26.625Z,8.40
2023-05-10T02:58:00.131Z,8.40
2023-05-10T03:00:27.904Z,8.40
2023-05-10T03:02:55.985Z,8.40
2023-05-10T03:05:24.510Z,8.40
2023-05-10T03:07:53.682Z,8.40
2023-05-10T03:10:27.946Z,8.30
2023-05-10T03:13:14.219Z,8.30
2023-05-10T03:15:42.262Z,8.30
2023-05-10T03:18:16.810Z,8.40
2023-05-10T03:20:49.555Z,8.40
2023-05-10T03:23:35.265Z,8.50
2023-05-10T03:26:09.342Z,8.40
2023-05-10T03:28:37.795Z,8.40
2023-05-10T03:31:07.422Z,8.50
2023-05-10T03:33:35.665Z,8.50
2023-05-10T03:36:03.430Z,8.50
2023-05-10T03:38:31.538Z,8.50
2023-05-10T03:41:00.464Z,8.50
2023-05-10T03:43:28.342Z,8.40
2023-05-10T03:45:56.098Z,8.40
2023-05-10T03:48:23.875Z,8.40
2023-05-10T03:50:51.932Z,8.40
2023-05-10T03:53:19.649Z,8.50
2023-05-10T03:55:47.612Z,8.50
2023-05-10T03:58:15.480Z,8.50
2023-05-10T04:00:46.106Z,8.40
2023-05-10T04:03:15.644Z,8.40
2023-05-10T04:05:43.376Z,8.50
2023-05-10T04:08:11.135Z,8.50
2023-05-10T04:10:38.974Z,8.50
2023-05-10T04:13:06.978Z,8.60
2023-05-10T04:15:34.792Z,8.50
2023-05-10T04:18:02.534Z,8.60
2023-05-10T04:20:30.320Z,8.60
2023-05-10T04:22:57.944Z,8.60
2023-05-10T04:25:25.676Z,8.60
2023-05-10T04:27:53.331Z,8.60
2023-05-10T04:30:21.027Z,8.70
2023-05-10T04:32:49.080Z,8.70
2023-05-10T04:35:16.806Z,8.70
2023-05-10T04:37:44.559Z,8.70
2023-05-10T04:40:12.769Z,8.70
2023-05-10T04:42:42.485Z,8.70
2023-05-10T04:45:11.367Z,8.70
2023-05-10T04:47:39.210Z,8.70
2023-05-10T04:50:07.663Z,8.80
2023-05-10T04:52:35.364Z,8.70
2023-05-10T04:55:02.980Z,8.80
2023-05-10T04:57:30.759Z,8.80
2023-05-10T04:59:58.820Z,8.80
2023-05-10T05:02:26.673Z,8.80
2023-05-10T05:04:54.341Z,8.90
2023-05-10T05:07:22.005Z,8.90
2023-05-10T05:09:50.849Z,8.90
2023-05-10T05:12:18.691Z,8.80
2023-05-10T05:14:46.342Z,8.90
2023-05-10T05:17:14.219Z,8.90
2023-05-10T05:19:41.848Z,9.00
2023-05-10T05:22:09.779Z,9.00
2023-05-10T05:24:40.543Z,9.00
2023-05-10T05:27:08.850Z,9.00
2023-05-10T05:29:36.594Z,9.10
2023-05-10T05:32:04.525Z,9.10
2023-05-10T05:34:32.329Z,9.10
2023-05-10T05:36:59.977Z,9.10
2023-05-10T05:39:27.608Z,9.10
2023-05-10T05:41:55.791Z,9.10
2023-05-10T05:44:24.390Z,9.10
2023-05-10T05:46:51.994Z,9.20
2023-05-10T05:49:19.642Z,9.20
2023-05-10T05:51:47.306Z,9.20
2023-05-10T05:54:15.061Z,9.20
2023-05-10T05:56:43.016Z,9.30
2023-05-10T05:59:11.075Z,9.30
2023-05-10T06:01:38.851Z,9.30
2023-05-10T06:04:06.595Z,9.30
2023-05-10T06:06:34.358Z,9.40
2023-05-10T06:09:01.976Z,9.40
2023-05-10T06:11:29.640Z,9.40
2023-05-10T06:13:57.495Z,9.40
2023-05-10T06:16:25.145Z,9.30
2023-05-10T06:18:53.632Z,9.40
2023-05-10T06:21:21.513Z,9.50
2023-05-10T06:23:49.391Z,9.60
2023-05-10T06:26:17.365Z,9.60
2023-05-10T06:28:45.116Z,9.70
2023-05-10T06:31:13.451Z,9.70
2023-05-10T06:33:41.722Z,9.70
2023-05-10T06:36:09.532Z,9.60
2023-05-10T06:38:37.251Z,9.70
2023-05-10T06:41:04.904Z,9.80
2023-05-10T06:43:32.737Z,9.60
2023-05-10T06:46:00.425Z,9.70
2023-05-10T06:48:28.268Z,9.70
2023-05-10T06:50:56.079Z,9.70
2023-05-10T06:53:23.748Z,9.70
2023-05-10T06:55:51.582Z,9.80
2023-05-10T06:58:19.266Z,9.70
2023-05-10T07:00:48.126Z,9.80
2023-05-10T07:03:16.250Z,9.90
2023-05-10T07:05:44.339Z,9.90
2023-05-10T07:08:13.134Z,10.00
2023-05-10T07:10:40.805Z,10.00
2023-05-10T07:13:08.542Z,10.10
2023-05-10T07:15:36.522Z,9.90
2023-05-10T07:18:05.603Z,9.90
2023-05-10T07:20:33.593Z,10.00
2023-05-10T07:23:01.922Z,10.10
2023-05-10T07:25:29.598Z,10.00
2023-05-10T07:27:57.329Z,10.00
2023-05-10T07:30:25.359Z,10.00
2023-05-10T07:32:53.110Z,10.10
2023-05-10T07:35:20.757Z,10.10
2023-05-10T07:37:48.431Z,10.10
2023-05-10T07:40:16.063Z,10.10
2023-05-10T07:42:43.740Z,10.20
2023-05-10T07:45:12.476Z,10.20
2023-05-10T07:47:40.405Z,10.20
2023-05-10T07:50:08.833Z,10.30
2023-05-10T07:52:36.608Z,10.30
2023-05-10T07:55:04.598Z,10.30
2023-05-10T07:57:32.546Z,10.40
2023-05-10T08:00:00.324Z,10.30
2023-05-10T08:02:28.182Z,10.30
2023-05-10T08:04:56.881Z,10.30
2023-05-10T08:07:26.039Z,10.30
2023-05-10T08:09:53.722Z,10.30
2023-05-10T08:12:21.357Z,10.30
2023-05-10T08:14:49.139Z,10.20
2023-05-10T08:17:18.696Z,10.30
2023-05-10T08:19:47.484Z,10.40
2023-05-10T08:22:15.106Z,10.60
2023-05-10T08:24:43.277Z,10.50
2023-05-10T08:27:11.030Z,10.60
2023-05-10T08:29:49.368Z,10.50
2023-05-10T08:32:18.715Z,10.70
2023-05-10T08:34:46.509Z,10.90
2023-05-10T08:37:14.556Z,10.90
2023-05-10T08:39:42.464Z,11.00
2023-05-10T08:42:10.896Z,11.10
2023-05-10T08:44:38.604Z,11.40
2023-05-10T08:47:08.848Z,11.40
2023-05-10T08:49:38.567Z,11.40
2023-05-10T08:52:08.488Z,11.30
2023-05-10T08:54:36.588Z,11.40
2023-05-10T08:57:04.538Z,11.70
2023-05-10T08:59:32.457Z,11.90
2023-05-10T09:02:01.046Z,11.80
2023-05-10T09:04:30.665Z,11.70
2023-05-10T09:07:02.195Z,11.70
2023-05-10T09:09:30.598Z,11.90
2023-05-10T09:11:58.507Z,12.30
2023-05-10T09:14:26.370Z,12.30
2023-05-10T09:16:56.378Z,11.90
2023-05-10T09:19:24.278Z,12.00
2023-05-10T09:21:52.081Z,11.70
2023-05-10T09:24:19.932Z,12.00
2023-05-10T09:26:52.414Z,12.10
2023-05-10T09:29:20.172Z,12.10
2023-05-10T09:31:55.903Z,12.00
2023-05-10T09:34:30.982Z,11.80
2023-05-10T09:37:04.569Z,12.20
2023-05-10T09:39:38.772Z,12.60
2023-05-10T09:42:08.520Z,12.60
2023-05-10T09:44:36.909Z,12.80
2023-05-10T09:47:05.355Z,12.70
2023-05-10T09:49:34.326Z,12.80
2023-05-10T09:52:09.226Z,12.70
2023-05-10T09:54:37.409Z,12.90
2023-05-10T09:57:05.162Z,12.90
2023-05-10T09:59:35.988Z,12.90
2023-05-10T10:02:04.045Z,13.20
2023-05-10T10:04:32.026Z,13.20
2023-05-10T10:07:07.340Z,12.90
2023-05-10T10:09:36.195Z,12.80
2023-05-10T10:12:04.918Z,12.90
2023-05-10T10:14:32.745Z,13.00
2023-05-10T10:19:36.773Z,13.00
2023-05-10T10:22:05.205Z,13.20
2023-05-10T10:24:32.967Z,13.20
2023-05-10T10:27:27.995Z,13.30
2023-05-10T10:30:14.682Z,13.40
2023-05-10T10:33:03.917Z,12.90
2023-05-10T10:35:34.077Z,12.70
2023-05-10T10:38:02.151Z,12.60
2023-05-10T10:40:35.000Z,12.90
2023-05-10T10:43:28.952Z,12.90
2023-05-10T10:46:18.282Z,13.00
2023-05-10T10:49:08.663Z,13.10
2023-05-10T10:51:39.947Z,13.20
2023-05-10T10:54:11.862Z,13.10
2023-05-10T10:56:39.645Z,13.20
2023-05-10T10:59:10.256Z,12.90
2023-05-10T11:01:38.066Z,13.20
2023-05-10T11:04:06.802Z,13.20
2023-05-10T11:06:36.821Z,13.10
2023-05-10T11:09:16.303Z,13.30
2023-05-10T11:11:59.139Z,13.10
2023-05-10T11:14:26.971Z,13.00
2023-05-10T11:16:54.867Z,13.10
2023-05-10T11:19:22.623Z,13.00
2023-05-10T11:21:52.901Z,13.10
2023-05-10T11:24:23.219Z,13.00
2023-05-10T11:26:55.071Z,12.70
2023-05-10T11:29:22.907Z,12.80
2023-05-10T11:31:52.077Z,12.60
2023-05-10T11:34:36.715Z,12.70
2023-05-10T11:37:04.419Z,12.80
2023-05-10T11:39:34.475Z,12.60
2023-05-10T11:42:02.296Z,12.70
2023-05-10T11:44:34.017Z,12.70
2023-05-10T11:47:02.597Z,12.80
2023-05-10T11:49:30.505Z,12.80
2023-05-10T11:52:08.874Z,12.90
2023-05-10T11:54:36.883Z,12.90
2023-05-10T11:57:06.111Z,13.00
2023-05-10T11:59:33.736Z,12.90
2023-05-10T12:02:01.817Z,13.10
2023-05-10T12:04:30.788Z,13.20
2023-05-10T12:06:58.781Z,13.50
2023-05-10T12:09:42.433Z,13.80
2023-05-10T12:12:11.895Z,13.80
2023-05-10T12:14:39.615Z,14.00
2023-05-10T12:17:07.372Z,14.00
2023-05-10T12:19:39.731Z,14.00
2023-05-10T12:22:07.859Z,13.90
2023-05-10T12:24:37.105Z,14.30
2023-05-10T12:27:09.753Z,14.10
2023-05-10T12:29:37.861Z,14.10
2023-05-10T12:32:05.675Z,14.20
2023-05-10T12:34:36.076Z,14.20
2023-05-10T12:37:04.556Z,14.50
2023-05-10T12:39:42.419Z,14.50
2023-05-10T12:42:10.685Z,14.60
2023-05-10T12:44:38.649Z,14.40
2023-05-10T12:47:07.018Z,14.40
2023-05-10T12:49:35.179Z,14.20
2023-05-10T12:52:03.328Z,13.90
2023-05-10T12:54:31.213Z,14.00
2023-05-10T12:56:58.991Z,13.80
2023-05-10T12:59:26.706Z,13.70
2023-05-10T13:01:55.836Z,13.60
2023-05-10T13:04:23.607Z,13.60
2023-05-10T13:06:51.381Z,13.60
2023-05-10T13:09:19.165Z,13.60
2023-05-10T13:11:48.537Z,13.60
2023-05-10T13:14:16.499Z,13.50
2023-05-10T13:16:45.206Z,13.50
2023-05-10T13:19:13.736Z,13.40
2023-05-10T13:21:45.340Z,13.30
2023-05-10T13:24:15.343Z,13.30
2023-05-10T13:26:43.075Z,13.30
2023-05-10T13:29:11.156Z,13.40
2023-05-10T13:31:38.958Z,13.30
2023-05-10T13:34:07.216Z,13.20
2023-05-10T13:36:34.930Z,13.10
2023-05-10T13:39:04.427Z,13.10
2023-05-10T13:41:32.572Z,13.30
2023-05-10T13:44:00.638Z,13.20
2023-05-10T13:46:28.597Z,13.10
2023-05-10T13:48:56.504Z,13.00
2023-05-10T13:51:24.627Z,12.90
2023-05-10T13:53:53.202Z,12.80
2023-05-10T13:56:20.925Z,12.80
2023-05-10T13:58:48.664Z,12.80
2023-05-10T14:01:20.703Z,12.90
2023-05-10T14:03:51.658Z,12.70
2023-05-10T14:06:19.580Z,12.60
2023-05-10T14:08:47.341Z,12.80
2023-05-10T14:11:15.594Z,12.70
2023-05-10T14:13:43.589Z,12.80
2023-05-10T14:16:12.015Z,12.80
2023-05-10T14:18:39.854Z,12.70
2023-05-10T14:21:07.988Z,12.70
2023-05-10T14:23:35.760Z,12.70
2023-05-10T14:26:03.990Z,12.80
2023-05-10T14:28:32.335Z,12.80
2023-05-10T14:31:00.366Z,12.80
2023-05-10T14:33:28.106Z,13.10
2023-05-10T14:35:58.461Z,13.20
2023-05-10T14:38:26.201Z,13.30
2023-05-10T14:40:53.858Z,13.20
2023-05-10T14:43:21.514Z,13.20
2023-05-10T14:45:49.453Z,13.40
2023-05-10T14:48:18.521Z,13.40
2023-05-10T14:50:47.147Z,13.40
2023-05-10T14:53:14.868Z,13.60
2023-05-10T14:55:42.655Z,13.50
2023-05-10T14:58:10.443Z,13.40
2023-05-10T15:00:38.233Z,13.10
2023-05-10T15:03:06.712Z,12.90
2023-05-10T15:05:35.011Z,12.70
2023-05-10T15:08:03.320Z,12.70
2023-05-10T15:10:33.749Z,12.70
2023-05-10T15:13:02.447Z,12.30
2023-05-10T15:15:30.218Z,12.30
2023-05-10T15:17:58.028Z,12.10
2023-05-10T15:20:25.909Z,11.90
2023-05-10T15:22:53.622Z,11.80
2023-05-10T15:25:21.546Z,11.90
2023-05-10T15:27:49.346Z,12.00
2023-05-10T15:30:17.319Z,11.90
2023-05-10T15:32:45.143Z,12.00
2023-05-10T15:35:15.028Z,11.90
2023-05-10T15:37:42.841Z,12.00
2023-05-10T15:40:11.313Z,12.00
2023-05-10T15:42:39.047Z,12.00
2023-05-10T15:45:07.389Z,12.00
2023-05-10T15:47:35.304Z,12.00
2023-05-10T15:50:03.737Z,11.90
2023-05-10T15:52:31.494Z,11.90
2023-05-10T15:54:59.172Z,11.80
2023-05-10T15:57:26.794Z,11.80
2023-05-10T15:59:54.553Z,11.80
2023-05-10T16:02:23.626Z,11.70
2023-05-10T16:04:51.805Z,11.70
2023-05-10T16:07:19.534Z,11.60
2023-05-10T16:09:47.281Z,11.60
2023-05-10T16:12:16.494Z,11.60
2023-05-10T16:14:44.265Z,11.50
2023-05-10T16:17:12.099Z,11.60
2023-05-10T16:19:39.815Z,11.60
2023-05-10T16:22:07.814Z,11.60
2023-05-10T16:24:36.120Z,11.50
2023-05-10T16:27:04.034Z,11.50
2023-05-10T16:29:32.193Z,11.40
2023-05-10T16:31:59.947Z,11.40
2023-05-10T16:34:27.791Z,11.40
2023-05-10T16:36:55.401Z,11.20
2023-05-10T16:39:23.107Z,11.20
2023-05-10T16:41:51.012Z,11.10
2023-05-10T16:44:20.574Z,11.10
2023-05-10T16:46:49.120Z,10.90
2023-05-10T16:49:16.884Z,10.80
2023-05-10T16:51:44.631Z,10.80
2023-05-10T16:54:13.161Z,10.80
2023-05-10T16:56:41.030Z,10.70
2023-05-10T16:59:08.816Z,10.60
2023-05-10T17:01:37.517Z,10.60
2023-05-10T17:04:05.467Z,10.70
2023-05-10T17:06:33.933Z,10.70
2023-05-10T17:09:01.633Z,10.60
2023-05-10T17:11:30.161Z,10.60
2023-05-10T17:13:59.654Z,10.60
2023-05-10T17:16:27.536Z,10.60
2023-05-10T17:18:55.311Z,10.60
2023-05-10T17:21:23.211Z,10.60
2023-05-10T17:23:51.015Z,10.60
2023-05-10T17:26:18.827Z,10.60
2023-05-10T17:28:46.581Z,10.50
2023-05-10T17:31:15.254Z,10.60
2023-05-10T17:33:43.759Z,10.60
2023-05-10T17:36:12.623Z,10.50
2023-05-10T17:38:42.861Z,10.50
2023-05-10T17:41:10.638Z,10.50
2023-05-10T17:43:38.308Z,10.50
2023-05-10T17:46:06.274Z,10.50
2023-05-10T17:48:37.150Z,10.50
2023-05-10T17:51:05.357Z,10.50
2023-05-10T17:53:35.202Z,10.50
2023-05-10T17:56:03.132Z,10.60
2023-05-10T17:58:31.192Z,10.50
2023-05-10T18:00:59.107Z,10.50
2023-05-10T18:03:27.373Z,10.50
2023-05-10T18:05:55.554Z,10.40
2023-05-10T18:08:26.963Z,10.50
2023-05-10T18:10:55.076Z,10.40
2023-05-10T18:13:22.767Z,10.40
2023-05-10T18:15:50.494Z,10.30
2023-05-10T18:18:18.373Z,10.40
2023-05-10T18:20:46.611Z,10.30
2023-05-10T18:23:15.355Z,10.30
2023-05-10T18:25:43.129Z,10.20
2023-05-10T18:28:10.814Z,10.20
2023-05-10T18:30:38.680Z,10.20
2023-05-10T18:33:06.865Z,10.20
2023-05-10T18:35:37.358Z,10.20
2023-05-10T18:38:05.197Z,10.20
2023-05-10T18:40:33.002Z,10.20
2023-05-10T18:43:00.667Z,10.10
2023-05-10T18:45:28.323Z,10.10
2023-05-10T18:47:56.157Z,10.00
2023-05-10T18:50:23.897Z,10.00
2023-05-10T18:52:51.707Z,9.90
2023-05-10T18:55:19.859Z,9.90
2023-05-10T18:57:47.973Z,9.90
2023-05-10T19:00:15.847Z,9.90
2023-05-10T19:02:43.597Z,9.90
2023-05-10T19:05:11.517Z,10.00
2023-05-10T19:07:40.608Z,10.00
2023-05-10T19:10:08.668Z,10.00
2023-05-10T19:12:36.418Z,9.90
2023-05-10T19:15:04.431Z,9.90
2023-05-10T19:17:36.834Z,9.90
2023-05-10T19:20:06.923Z,9.80
2023-05-10T19:22:45.415Z,9.90
2023-05-10T19:25:24.381Z,9.90
2023-05-10T19:27:53.740Z,9.90
2023-05-10T19:30:21.591Z,9.90
2023-05-10T19:32:49.294Z,10.00
2023-05-10T19:35:17.627Z,9.90
2023-05-10T19:37:47.395Z,9.90
2023-05-10T19:40:16.108Z,9.90
2023-05-10T19:42:44.011Z,9.90
2023-05-10T19:45:12.409Z,9.90
2023-05-10T19:47:41.981Z,9.90
2023-05-10T19:50:10.053Z,9.90
2023-05-10T19:52:38.060Z,9.80
2023-05-10T19:55:06.369Z,9.80
2023-05-10T19:57:34.166Z,9.80
2023-05-10T20:00:04.056Z,9.80
2023-05-10T20:02:39.109Z,9.70
2023-05-10T20:05:07.409Z,9.70
2023-05-10T20:07:36.969Z,9.70
2023-05-10T20:10:05.305Z,9.60
2023-05-10T20:12:33.188Z,9.60
2023-05-10T20:15:00.915Z,9.50
2023-05-10T20:17:28.764Z,9.60
2023-05-10T20:19:56.905Z,9.70
2023-05-10T20:22:26.332Z,9.70
2023-05-10T20:24:55.874Z,9.70
2023-05-10T20:27:24.196Z,9.70
2023-05-10T20:29:51.946Z,9.70
2023-05-10T20:32:19.638Z,9.60
2023-05-10T20:34:47.433Z,9.60
2023-05-10T20:37:15.410Z,9.60
2023-05-10T20:39:43.351Z,9.50
2023-05-10T20:42:11.039Z,9.60
2023-05-10T20:44:38.818Z,9.50
2023-05-10T20:47:06.831Z,9.50
2023-05-10T20:49:35.664Z,9.50
2023-05-10T20:52:04.258Z,9.50
2023-05-10T20:54:32.075Z,9.50
2023-05-10T20:57:00.487Z,9.50
2023-05-10T20:59:28.780Z,9.60
2023-05-10T21:01:57.706Z,9.60
2023-05-10T21:04:26.039Z,9.60
2023-05-10T21:06:55.699Z,9.60
2023-05-10T21:09:23.510Z,9.60
2023-05-10T21:11:51.380Z,9.50
2023-05-10T21:14:19.092Z,9.50
2023-05-10T21:16:47.133Z,9.60
2023-05-10T21:19:15.420Z,9.60
2023-05-10T21:21:43.160Z,9.60
2023-05-10T21:24:11.176Z,9.50
2023-05-10T21:26:39.026Z,9.60
2023-05-10T21:29:07.098Z,9.60
2023-05-10T21:31:34.762Z,9.60
2023-05-10T21:34:02.451Z,9.60
2023-05-10T21:36:30.232Z,9.60
2023-05-10T21:38:58.221Z,9.60
2023-05-10T21:41:25.951Z,9.50
2023-05-10T21:43:53.706Z,9.50
2023-05-10T21:46:21.469Z,9.50
2023-05-10T21:48:51.617Z,9.50
2023-05-10T21:51:19.658Z,9.50
2023-05-10T21:53:47.741Z,9.40
2023-05-10T21:56:15.543Z,9.40
2023-05-10T21:58:43.182Z,9.30
2023-05-10T22:01:11.053Z,9.30
2023-05-10T22:03:39.372Z,9.40
2023-05-10T22:06:08.480Z,9.40
2023-05-10T22:08:36.427Z,9.30
2023-05-10T22:11:05.263Z,9.30
2023-05-10T22:13:32.921Z,9.20
2023-05-10T22:16:00.701Z,9.20
2023-05-10T22:18:28.442Z,9.20
2023-05-10T22:20:56.215Z,9.20
2023-05-10T22:23:23.917Z,9.10
2023-05-10T22:25:54.604Z,9.00
2023-05-10T22:28:22.382Z,9.00
2023-05-10T22:30:50.134Z,9.00
2023-05-10T22:33:18.035Z,9.10
2023-05-10T22:35:45.735Z,9.10
2023-05-10T22:38:13.411Z,9.00
2023-05-10T22:40:42.174Z,8.90
2023-05-10T22:43:09.907Z,9.00
2023-05-10T22:45:38.168Z,9.10
2023-05-10T22:48:06.448Z,9.10
2023-05-10T22:50:34.361Z,9.10
2023-05-10T22:53:02.101Z,9.10
2023-05-10T22:55:30.210Z,9.10
2023-05-10T22:57:58.252Z,9.00
2023-05-10T23:00:26.392Z,8.90
2023-05-10T23:02:54.935Z,8.90
2023-05-10T23:05:22.667Z,8.90
2023-05-10T23:07:53.325Z,8.70
2023-05-10T23:10:21.082Z,8.70
2023-05-10T23:12:48.825Z,8.80
2023-05-10T23:15:16.687Z,8.60
2023-05-10T23:17:44.608Z,8.70
2023-05-10T23:20:12.978Z,8.70
2023-05-10T23:22:40.661Z,8.60
2023-05-10T23:25:09.261Z,8.70
2023-05-10T23:27:36.975Z,8.70
2023-05-10T23:30:04.953Z,8.60
2023-05-10T23:32:33.095Z,8.60
2023-05-10T23:35:00.975Z,8.60
2023-05-10T23:37:28.740Z,8.70
2023-05-10T23:39:56.584Z,8.60
2023-05-10T23:42:24.422Z,8.70
2023-05-10T23:44:52.637Z,8.60
2023-05-10T23:47:20.516Z,8.70
2023-05-10T23:49:50.203Z,8.70
2023-05-10T23:55:36.328Z,8.70
2023-05-10T23:58:04.082Z,8.80
